This is the latest recevied weather packets stored in our database for station/object W4SMH. If no packets are shown the sender has not sent any weather packets the latest 10 day(s).
| Time | Temp. | Humidity | Pressure | Rain* | Wind** | Luminosity | Snow |
|---|---|---|---|---|---|---|---|
| 1777460357 | 7.78° C | 87% | 1011.7 hPa | 0.25 mm | - | 0 W/m² | - |
| 1777460104 | 7.78° C | 87% | 1011.8 hPa | 0.25 mm | - | 0 W/m² | - |
| 1777459530 | 7.78° C | 86% | 1011.7 hPa | 0.25 mm | - | 0 W/m² | - |
| 1777459240 | 7.78° C | 86% | 1011.7 hPa | 0.25 mm | - | 0 W/m² | - |
| 1777459005 | 6.67° C | 90% | 1014.4 hPa | 0 mm | - | 0 W/m² | - |
| 1777458965 | 7.78° C | 86% | 1011.7 hPa | 0.25 mm | - | 0 W/m² | - |
| 1777458368 | 7.78° C | 86% | 1011.8 hPa | 0.25 mm | - | 0 W/m² | - |
| 1777458314 | 7.78° C | 86% | 1011.7 hPa | 0.25 mm | - | 0 W/m² | - |
| 1777458253 | 7.78° C | 85% | 1011.8 hPa | 0.25 mm | - | 0 W/m² | - |
| 1777457918 | 8.33° C | 85% | 1011.7 hPa | 0 mm | - | 0 W/m² | - |
| 1777457223 | 8.33° C | 85% | 1011.8 hPa | 0 mm | - | 0 W/m² | - |
| 1777457036 | 8.33° C | 85% | 1011.8 hPa | 0.25 mm | - | 0 W/m² | - |
| 1777456978 | 8.33° C | 85% | 1011.7 hPa | 0.25 mm | - | 0 W/m² | - |
| 1777456189 | 8.89° C | 85% | 1011.7 hPa | 0.25 mm | - | 0 W/m² | - |
| 1777455916 | 8.89° C | 85% | 1011.6 hPa | 0.25 mm | - | 0 W/m² | - |
| 1777455692 | 8.89° C | 85% | 1011.5 hPa | 0.25 mm | - | 0 W/m² | - |
| 1777455196 | 9.44° C | 85% | 1011.5 hPa | 0.51 mm | - | 0 W/m² | - |
| 1777454878 | 9.44° C | 85% | 1011.6 hPa | 0.51 mm | - | 0 W/m² | - |
| 1777454851 | 9.44° C | 85% | 1011.5 hPa | 0.51 mm | - | 0 W/m² | - |
| 1777454734 | 9.44° C | 84% | 1011.5 hPa | 0.51 mm | - | 0 W/m² | - |
| 1777454513 | 9.44° C | 84% | 1011.6 hPa | 0.51 mm | - | 0 W/m² | - |
| 1777454172 | 9.44° C | 83% | 1011.5 hPa | 0.51 mm | - | 0 W/m² | - |
| 1777453106 | 10° C | 82% | 1011.6 hPa | 0.25 mm | - | 0 W/m² | - |
| 1777452884 | 10° C | 81% | 1011.6 hPa | 0.25 mm | - | 0 W/m² | - |
| 1777452647 | 10° C | 81% | 1011.6 hPa | 0.25 mm | - | 0 W/m² | - |
* Rain latest hour (hover to see other rain measurements)
** Current wind speed in m/s (hover to see current wind gust speed)